sensor_id;sensor_type;location;lat;lon;timestamp;pressure;altitude;pressure_sealevel;temperature;humidity
76358;BME280;65185;21.060;105.826;2024-02-23T00:01:00;101558.53;;;23.16;100.00
76358;BME280;65185;21.060;105.826;2024-02-23T00:03:26;101563.81;;;23.16;100.00
76358;BME280;65185;21.060;105.826;2024-02-23T00:05:53;101559.59;;;23.12;100.00
76358;BME280;65185;21.060;105.826;2024-02-23T00:08:19;101573.63;;;23.12;100.00
76358;BME280;65185;21.060;105.826;2024-02-23T00:10:45;101568.44;;;23.11;100.00
76358;BME280;65185;21.060;105.826;2024-02-23T00:13:12;101572.09;;;23.08;100.00
76358;BME280;65185;21.060;105.826;2024-02-23T00:18:04;101587.22;;;23.05;100.00
76358;BME280;65185;21.060;105.826;2024-02-23T00:20:31;101588.13;;;23.04;100.00
76358;BME280;65185;21.060;105.826;2024-02-23T00:22:58;101591.41;;;23.09;100.00
76358;BME280;65185;21.060;105.826;2024-02-23T00:25:24;101598.44;;;23.10;100.00
76358;BME280;65185;21.060;105.826;2024-02-23T00:27:50;101594.94;;;23.09;100.00
76358;BME280;65185;21.060;105.826;2024-02-23T00:30:17;101607.19;;;23.12;100.00
76358;BME280;65185;21.060;105.826;2024-02-23T00:32:43;101611.00;;;23.05;100.00
76358;BME280;65185;21.060;105.826;2024-02-23T00:35:09;101612.16;;;22.98;100.00
76358;BME280;65185;21.060;105.826;2024-02-23T00:37:36;101609.41;;;23.01;100.00
76358;BME280;65185;21.060;105.826;2024-02-23T00:40:04;101615.50;;;23.03;100.00
76358;BME280;65185;21.060;105.826;2024-02-23T00:42:31;101618.06;;;23.04;100.00
76358;BME280;65185;21.060;105.826;2024-02-23T00:44:57;101627.38;;;23.13;100.00
76358;BME280;65185;21.060;105.826;2024-02-23T00:47:24;101626.59;;;23.11;100.00
76358;BME280;65185;21.060;105.826;2024-02-23T00:49:50;101620.88;;;23.00;100.00
76358;BME280;65185;21.060;105.826;2024-02-23T00:52:16;101628.75;;;23.01;100.00
76358;BME280;65185;21.060;105.826;2024-02-23T00:54:43;101626.72;;;23.08;100.00
76358;BME280;65185;21.060;105.826;2024-02-23T00:57:09;101623.59;;;22.98;100.00
76358;BME280;65185;21.060;105.826;2024-02-23T00:59:36;101629.03;;;22.95;100.00
76358;BME280;65185;21.060;105.826;2024-02-23T01:02:02;101631.03;;;22.89;100.00
76358;BME280;65185;21.060;105.826;2024-02-23T01:04:28;101630.00;;;22.93;100.00
76358;BME280;65185;21.060;105.826;2024-02-23T01:06:55;101634.56;;;22.89;100.00
76358;BME280;65185;21.060;105.826;2024-02-23T01:09:21;101638.97;;;22.89;100.00
76358;BME280;65185;21.060;105.826;2024-02-23T01:11:48;101645.06;;;22.91;100.00
76358;BME280;65185;21.060;105.826;2024-02-23T01:14:14;101657.09;;;22.98;100.00
76358;BME280;65185;21.060;105.826;2024-02-23T01:19:07;101660.75;;;22.95;100.00
76358;BME280;65185;21.060;105.826;2024-02-23T01:21:34;101657.47;;;22.89;100.00
76358;BME280;65185;21.060;105.826;2024-02-23T01:24:01;101660.84;;;22.92;100.00
76358;BME280;65185;21.060;105.826;2024-02-23T01:26:27;101660.25;;;22.86;100.00
76358;BME280;65185;21.060;105.826;2024-02-23T01:28:53;101669.66;;;22.93;100.00
76358;BME280;65185;21.060;105.826;2024-02-23T01:31:20;101675.56;;;22.99;100.00
76358;BME280;65185;21.060;105.826;2024-02-23T01:33:46;101677.72;;;22.90;100.00
76358;BME280;65185;21.060;105.826;2024-02-23T01:36:13;101675.38;;;22.82;100.00
76358;BME280;65185;21.060;105.826;2024-02-23T01:38:39;101685.22;;;22.78;100.00
76358;BME280;65185;21.060;105.826;2024-02-23T01:41:08;101682.88;;;22.71;100.00
76358;BME280;65185;21.060;105.826;2024-02-23T01:43:37;101691.91;;;22.65;100.00
76358;BME280;65185;21.060;105.826;2024-02-23T01:46:03;101699.19;;;22.59;100.00
76358;BME280;65185;21.060;105.826;2024-02-23T01:48:31;101698.47;;;22.54;100.00
76358;BME280;65185;21.060;105.826;2024-02-23T01:50:58;101710.94;;;22.50;100.00
76358;BME280;65185;21.060;105.826;2024-02-23T01:53:25;101713.06;;;22.41;100.00
76358;BME280;65185;21.060;105.826;2024-02-23T01:55:54;101714.16;;;22.35;100.00
76358;BME280;65185;21.060;105.826;2024-02-23T01:58:21;101726.75;;;22.29;100.00
76358;BME280;65185;21.060;105.826;2024-02-23T02:00:47;101734.00;;;22.22;100.00
76358;BME280;65185;21.060;105.826;2024-02-23T02:03:14;101741.25;;;22.17;100.00
76358;BME280;65185;21.060;105.826;2024-02-23T02:05:41;101738.47;;;22.20;100.00
76358;BME280;65185;21.060;105.826;2024-02-23T02:08:07;101738.53;;;22.19;100.00
76358;BME280;65185;21.060;105.826;2024-02-23T02:10:33;101742.31;;;22.12;100.00
76358;BME280;65185;21.060;105.826;2024-02-23T02:13:04;101749.28;;;22.14;100.00
76358;BME280;65185;21.060;105.826;2024-02-23T02:15:31;101753.81;;;22.11;100.00
76358;BME280;65185;21.060;105.826;2024-02-23T02:17:57;101752.13;;;22.08;100.00
76358;BME280;65185;21.060;105.826;2024-02-23T02:20:25;101756.78;;;22.02;100.00
76358;BME280;65185;21.060;105.826;2024-02-23T02:22:52;101765.72;;;21.98;100.00
76358;BME280;65185;21.060;105.826;2024-02-23T02:25:19;101763.16;;;21.95;100.00
76358;BME280;65185;21.060;105.826;2024-02-23T02:27:45;101765.16;;;21.88;100.00
76358;BME280;65185;21.060;105.826;2024-02-23T02:30:12;101770.44;;;21.88;100.00
76358;BME280;65185;21.060;105.826;2024-02-23T02:32:39;101776.69;;;21.86;100.00
76358;BME280;65185;21.060;105.826;2024-02-23T02:35:05;101783.78;;;21.83;100.00
76358;BME280;65185;21.060;105.826;2024-02-23T02:37:32;101787.41;;;21.81;100.00
76358;BME280;65185;21.060;105.826;2024-02-23T02:39:58;101777.66;;;21.83;100.00
76358;BME280;65185;21.060;105.826;2024-02-23T02:42:25;101789.03;;;21.85;100.00
76358;BME280;65185;21.060;105.826;2024-02-23T02:44:51;101781.34;;;21.77;100.00
76358;BME280;65185;21.060;105.826;2024-02-23T02:47:17;101789.59;;;21.67;100.00
76358;BME280;65185;21.060;105.826;2024-02-23T02:49:44;101791.53;;;21.62;100.00
76358;BME280;65185;21.060;105.826;2024-02-23T02:52:10;101789.91;;;21.58;100.00
76358;BME280;65185;21.060;105.826;2024-02-23T02:54:36;101798.84;;;21.54;100.00
76358;BME280;65185;21.060;105.826;2024-02-23T02:57:03;101799.88;;;21.50;100.00
76358;BME280;65185;21.060;105.826;2024-02-23T02:59:33;101794.59;;;21.50;100.00
76358;BME280;65185;21.060;105.826;2024-02-23T03:01:59;101798.03;;;21.52;100.00
76358;BME280;65185;21.060;105.826;2024-02-23T03:04:26;101800.75;;;21.49;100.00
76358;BME280;65185;21.060;105.826;2024-02-23T03:06:52;101802.50;;;21.50;100.00
76358;BME280;65185;21.060;105.826;2024-02-23T03:09:18;101807.97;;;21.44;100.00
76358;BME280;65185;21.060;105.826;2024-02-23T03:11:45;101805.28;;;21.45;100.00
76358;BME280;65185;21.060;105.826;2024-02-23T03:14:11;101808.09;;;21.39;100.00
76358;BME280;65185;21.060;105.826;2024-02-23T03:16:38;101812.59;;;21.36;100.00
76358;BME280;65185;21.060;105.826;2024-02-23T03:19:04;101810.59;;;21.44;100.00
76358;BME280;65185;21.060;105.826;2024-02-23T03:21:31;101816.28;;;21.32;100.00
76358;BME280;65185;21.060;105.826;2024-02-23T03:23:57;101819.03;;;21.27;100.00
76358;BME280;65185;21.060;105.826;2024-02-23T03:26:24;101819.19;;;21.23;100.00
76358;BME280;65185;21.060;105.826;2024-02-23T03:28:50;101822.78;;;21.20;100.00
76358;BME280;65185;21.060;105.826;2024-02-23T03:31:16;101820.19;;;21.19;100.00
76358;BME280;65185;21.060;105.826;2024-02-23T03:33:43;101809.50;;;21.23;100.00
76358;BME280;65185;21.060;105.826;2024-02-23T03:36:09;101808.84;;;21.17;100.00
76358;BME280;65185;21.060;105.826;2024-02-23T03:38:35;101805.50;;;21.10;100.00
76358;BME280;65185;21.060;105.826;2024-02-23T03:41:01;101796.72;;;21.11;100.00
76358;BME280;65185;21.060;105.826;2024-02-23T03:43:28;101803.16;;;21.01;100.00
76358;BME280;65185;21.060;105.826;2024-02-23T03:45:54;101811.88;;;21.03;100.00
76358;BME280;65185;21.060;105.826;2024-02-23T03:48:21;101796.94;;;21.04;100.00
76358;BME280;65185;21.060;105.826;2024-02-23T03:50:47;101802.53;;;20.92;100.00
76358;BME280;65185;21.060;105.826;2024-02-23T03:53:13;101799.13;;;20.88;100.00
76358;BME280;65185;21.060;105.826;2024-02-23T03:55:40;101801.53;;;20.96;100.00
76358;BME280;65185;21.060;105.826;2024-02-23T03:58:06;101797.31;;;20.90;100.00
76358;BME280;65185;21.060;105.826;2024-02-23T04:00:33;101804.56;;;20.83;100.00
76358;BME280;65185;21.060;105.826;2024-02-23T04:02:59;101787.16;;;20.78;100.00
76358;BME280;65185;21.060;105.826;2024-02-23T04:05:26;101792.28;;;20.82;100.00
76358;BME280;65185;21.060;105.826;2024-02-23T04:07:52;101789.69;;;20.81;100.00
76358;BME280;65185;21.060;105.826;2024-02-23T04:10:19;101787.28;;;20.73;100.00
76358;BME280;65185;21.060;105.826;2024-02-23T04:12:48;101786.50;;;20.70;100.00
76358;BME280;65185;21.060;105.826;2024-02-23T04:15:14;101787.47;;;20.67;100.00
76358;BME280;65185;21.060;105.826;2024-02-23T04:17:41;101775.09;;;20.69;100.00
76358;BME280;65185;21.060;105.826;2024-02-23T04:20:08;101767.25;;;20.68;100.00
76358;BME280;65185;21.060;105.826;2024-02-23T04:22:37;101756.88;;;20.63;100.00
76358;BME280;65185;21.060;105.826;2024-02-23T04:25:03;101765.75;;;20.59;100.00
76358;BME280;65185;21.060;105.826;2024-02-23T04:27:30;101767.53;;;20.59;100.00
76358;BME280;65185;21.060;105.826;2024-02-23T04:29:57;101763.31;;;20.53;100.00
76358;BME280;65185;21.060;105.826;2024-02-23T04:32:23;101766.69;;;20.58;100.00
76358;BME280;65185;21.060;105.826;2024-02-23T04:34:50;101759.72;;;20.56;100.00
76358;BME280;65185;21.060;105.826;2024-02-23T04:37:16;101757.72;;;20.64;100.00
76358;BME280;65185;21.060;105.826;2024-02-23T04:39:45;101744.81;;;20.55;100.00
76358;BME280;65185;21.060;105.826;2024-02-23T04:42:12;101740.56;;;20.51;100.00
76358;BME280;65185;21.060;105.826;2024-02-23T04:44:38;101738.59;;;20.57;100.00
76358;BME280;65185;21.060;105.826;2024-02-23T04:47:05;101738.75;;;20.53;100.00
76358;BME280;65185;21.060;105.826;2024-02-23T04:49:31;101743.34;;;20.46;100.00
76358;BME280;65185;21.060;105.826;2024-02-23T04:51:58;101744.06;;;20.51;100.00
76358;BME280;65185;21.060;105.826;2024-02-23T04:54:24;101745.13;;;20.44;100.00
76358;BME280;65185;21.060;105.826;2024-02-23T04:56:50;101746.19;;;20.39;100.00
76358;BME280;65185;21.060;105.826;2024-02-23T04:59:17;101738.38;;;20.36;100.00
76358;BME280;65185;21.060;105.826;2024-02-23T05:01:43;101738.38;;;20.36;100.00
76358;BME280;65185;21.060;105.826;2024-02-23T05:04:09;101731.34;;;20.36;100.00
76358;BME280;65185;21.060;105.826;2024-02-23T05:06:36;101724.34;;;20.35;100.00
76358;BME280;65185;21.060;105.826;2024-02-23T05:09:02;101729.63;;;20.35;100.00
76358;BME280;65185;21.060;105.826;2024-02-23T05:11:29;101730.50;;;20.36;100.00
76358;BME280;65185;21.060;105.826;2024-02-23T05:13:55;101740.25;;;20.32;100.00
76358;BME280;65185;21.060;105.826;2024-02-23T05:16:21;101732.50;;;20.26;100.00
76358;BME280;65185;21.060;105.826;2024-02-23T05:18:48;101732.56;;;20.25;100.00
76358;BME280;65185;21.060;105.826;2024-02-23T05:21:17;101720.34;;;20.22;100.00
76358;BME280;65185;21.060;105.826;2024-02-23T05:23:43;101720.38;;;20.21;100.00
76358;BME280;65185;21.060;105.826;2024-02-23T05:26:12;101720.38;;;20.21;100.00
76358;BME280;65185;21.060;105.826;2024-02-23T05:28:38;101712.59;;;20.18;100.00
76358;BME280;65185;21.060;105.826;2024-02-23T05:31:04;101712.63;;;20.15;100.00
76358;BME280;65185;21.060;105.826;2024-02-23T05:33:31;101709.09;;;20.16;100.00
76358;BME280;65185;21.060;105.826;2024-02-23T05:35:57;101700.34;;;20.15;100.00
76358;BME280;65185;21.060;105.826;2024-02-23T05:38:23;101696.06;;;20.11;100.00
76358;BME280;65185;21.060;105.826;2024-02-23T05:40:50;101700.50;;;20.09;100.00
76358;BME280;65185;21.060;105.826;2024-02-23T05:43:16;101699.63;;;20.10;100.00
76358;BME280;65185;21.060;105.826;2024-02-23T05:45:42;101699.66;;;20.09;100.00
76358;BME280;65185;21.060;105.826;2024-02-23T05:48:09;101697.06;;;20.07;100.00
76358;BME280;65185;21.060;105.826;2024-02-23T05:50:37;101693.59;;;20.05;100.00
76358;BME280;65185;21.060;105.826;2024-02-23T05:53:03;101699.78;;;20.04;100.00
76358;BME280;65185;21.060;105.826;2024-02-23T05:55:30;101704.25;;;20.01;100.00
76358;BME280;65185;21.060;105.826;2024-02-23T05:57:56;101701.69;;;19.99;100.00
76358;BME280;65185;21.060;105.826;2024-02-23T06:00:23;101690.28;;;19.99;100.00
76358;BME280;65185;21.060;105.826;2024-02-23T06:02:49;101689.47;;;19.97;100.00
76358;BME280;65185;21.060;105.826;2024-02-23T06:05:15;101676.31;;;19.97;100.00
76358;BME280;65185;21.060;105.826;2024-02-23T06:07:42;101678.06;;;19.98;100.00
76358;BME280;65185;21.060;105.826;2024-02-23T06:10:08;101682.44;;;19.97;100.00
76358;BME280;65185;21.060;105.826;2024-02-23T06:12:35;101670.22;;;19.95;100.00
76358;BME280;65185;21.060;105.826;2024-02-23T06:15:01;101665.84;;;19.95;100.00
76358;BME280;65185;21.060;105.826;2024-02-23T06:17:27;101662.28;;;19.96;100.00
76358;BME280;65185;21.060;105.826;2024-02-23T06:19:53;101657.03;;;19.96;100.00
76358;BME280;65185;21.060;105.826;2024-02-23T06:22:23;101652.59;;;19.98;100.00
76358;BME280;65185;21.060;105.826;2024-02-23T06:24:51;101648.28;;;19.96;100.00
76358;BME280;65185;21.060;105.826;2024-02-23T06:27:17;101644.78;;;19.95;100.00
76358;BME280;65185;21.060;105.826;2024-02-23T06:29:44;101646.59;;;19.93;100.00
76358;BME280;65185;21.060;105.826;2024-02-23T06:32:10;101637.88;;;19.91;100.00
76358;BME280;65185;21.060;105.826;2024-02-23T06:34:36;101637.06;;;19.89;100.00
76358;BME280;65185;21.060;105.826;2024-02-23T06:37:03;101638.03;;;19.86;100.00
76358;BME280;65185;21.060;105.826;2024-02-23T06:39:29;101641.69;;;19.81;100.00
76358;BME280;65185;21.060;105.826;2024-02-23T06:41:55;101637.28;;;19.81;100.00
76358;BME280;65185;21.060;105.826;2024-02-23T06:44:23;101627.72;;;19.79;100.00
76358;BME280;65185;21.060;105.826;2024-02-23T06:46:49;101627.78;;;19.76;100.00
76358;BME280;65185;21.060;105.826;2024-02-23T06:49:16;101615.66;;;19.72;100.00
76358;BME280;65185;21.060;105.826;2024-02-23T06:51:42;101626.97;;;19.75;100.00
76358;BME280;65185;21.060;105.826;2024-02-23T06:54:09;101624.38;;;19.72;100.00
76358;BME280;65185;21.060;105.826;2024-02-23T06:56:35;101619.13;;;19.72;100.00
76358;BME280;65185;21.060;105.826;2024-02-23T06:59:02;101608.63;;;19.72;100.00
76358;BME280;65185;21.060;105.826;2024-02-23T07:01:29;101601.69;;;19.70;100.00
76358;BME280;65185;21.060;105.826;2024-02-23T07:03:56;101599.00;;;19.71;100.00
76358;BME280;65185;21.060;105.826;2024-02-23T07:06:23;101599.88;;;19.72;100.00
76358;BME280;65185;21.060;105.826;2024-02-23T07:08:49;101600.88;;;19.68;100.00
76358;BME280;65185;21.060;105.826;2024-02-23T07:11:15;101593.91;;;19.65;100.00
76358;BME280;65185;21.060;105.826;2024-02-23T07:13:44;101586.91;;;19.66;100.00
76358;BME280;65185;21.060;105.826;2024-02-23T07:16:11;101580.72;;;19.67;100.00
76358;BME280;65185;21.060;105.826;2024-02-23T07:18:38;101572.94;;;19.64;100.00
76358;BME280;65185;21.060;105.826;2024-02-23T07:21:06;101561.59;;;19.62;100.00
76358;BME280;65185;21.060;105.826;2024-02-23T07:23:32;101562.47;;;19.62;100.00
76358;BME280;65185;21.060;105.826;2024-02-23T07:25:58;101563.28;;;19.64;100.00
76358;BME280;65185;21.060;105.826;2024-02-23T07:28:25;101563.31;;;19.63;100.00
76358;BME280;65185;21.060;105.826;2024-02-23T07:30:51;101552.00;;;19.61;100.00
76358;BME280;65185;21.060;105.826;2024-02-23T07:33:18;101546.81;;;19.58;100.00
76358;BME280;65185;21.060;105.826;2024-02-23T07:35:44;101558.25;;;19.57;100.00
76358;BME280;65185;21.060;105.826;2024-02-23T07:38:11;101555.56;;;19.58;100.00
76358;BME280;65185;21.060;105.826;2024-02-23T07:40:37;101552.00;;;19.59;100.00
76358;BME280;65185;21.060;105.826;2024-02-23T07:43:05;101550.31;;;19.58;100.00
76358;BME280;65185;21.060;105.826;2024-02-23T07:45:31;101545.16;;;19.55;100.00
76358;BME280;65185;21.060;105.826;2024-02-23T07:48:00;101550.41;;;19.55;100.00
76358;BME280;65185;21.060;105.826;2024-02-23T07:50:26;101546.97;;;19.53;100.00
76358;BME280;65185;21.060;105.826;2024-02-23T07:52:52;101540.94;;;19.50;100.00
76358;BME280;65185;21.060;105.826;2024-02-23T07:55:19;101533.06;;;19.48;100.00
76358;BME280;65185;21.060;105.826;2024-02-23T07:57:45;101540.00;;;19.51;100.00
76358;BME280;65185;21.060;105.826;2024-02-23T08:00:12;101533.88;;;19.50;100.00
76358;BME280;65185;21.060;105.826;2024-02-23T08:02:39;101539.19;;;19.49;100.00
76358;BME280;65185;21.060;105.826;2024-02-23T08:05:06;101538.31;;;19.48;100.00
76358;BME280;65185;21.060;105.826;2024-02-23T08:07:33;101540.94;;;19.50;100.00
76358;BME280;65185;21.060;105.826;2024-02-23T08:09:59;101537.47;;;19.48;100.00
76358;BME280;65185;21.060;105.826;2024-02-23T08:12:26;101538.47;;;19.44;100.00
76358;BME280;65185;21.060;105.826;2024-02-23T08:14:52;101534.09;;;19.43;100.00
76358;BME280;65185;21.060;105.826;2024-02-23T08:17:19;101530.69;;;19.39;100.00
76358;BME280;65185;21.060;105.826;2024-02-23T08:19:46;101529.81;;;19.40;100.00
76358;BME280;65185;21.060;105.826;2024-02-23T08:22:13;101528.94;;;19.40;100.00
76358;BME280;65185;21.060;105.826;2024-02-23T08:24:39;101523.63;;;19.41;100.00
76358;BME280;65185;21.060;105.826;2024-02-23T08:27:05;101525.31;;;19.44;100.00
76358;BME280;65185;21.060;105.826;2024-02-23T08:29:32;101521.88;;;19.42;100.00
76358;BME280;65185;21.060;105.826;2024-02-23T08:31:58;101517.44;;;19.44;100.00
76358;BME280;65185;21.060;105.826;2024-02-23T08:34:25;101518.47;;;19.38;100.00
76358;BME280;65185;21.060;105.826;2024-02-23T08:36:51;101513.22;;;19.38;100.00
76358;BME280;65185;21.060;105.826;2024-02-23T08:39:17;101521.97;;;19.37;100.00
76358;BME280;65185;21.060;105.826;2024-02-23T08:41:44;101522.13;;;19.33;100.00
76358;BME280;65185;21.060;105.826;2024-02-23T08:44:10;101513.38;;;19.31;100.00
76358;BME280;65185;21.060;105.826;2024-02-23T08:46:36;101522.91;;;19.36;100.00
76358;BME280;65185;21.060;105.826;2024-02-23T08:49:05;101516.88;;;19.33;100.00
76358;BME280;65185;21.060;105.826;2024-02-23T08:51:31;101514.16;;;19.36;100.00
76358;BME280;65185;21.060;105.826;2024-02-23T08:53:58;101517.69;;;19.35;100.00
76358;BME280;65185;21.060;105.826;2024-02-23T08:56:28;101516.88;;;19.33;100.00
76358;BME280;65185;21.060;105.826;2024-02-23T08:58:55;101517.78;;;19.30;100.00
76358;BME280;65185;21.060;105.826;2024-02-23T09:01:21;101520.50;;;19.27;100.00
76358;BME280;65185;21.060;105.826;2024-02-23T09:03:47;101521.47;;;19.23;100.00
76358;BME280;65185;21.060;105.826;2024-02-23T09:06:14;101522.41;;;19.22;100.00
76358;BME280;65185;21.060;105.826;2024-02-23T09:08:40;101519.00;;;19.17;100.00
76358;BME280;65185;21.060;105.826;2024-02-23T09:11:07;101515.50;;;19.18;100.00
76358;BME280;65185;21.060;105.826;2024-02-23T09:13:33;101508.56;;;19.16;100.00
76358;BME280;65185;21.060;105.826;2024-02-23T09:15:59;101519.06;;;19.16;100.00
76358;BME280;65185;21.060;105.826;2024-02-23T09:18:26;101517.31;;;19.16;100.00
76358;BME280;65185;21.060;105.826;2024-02-23T09:20:52;101510.28;;;19.17;100.00
76358;BME280;65185;21.060;105.826;2024-02-23T09:23:19;101519.94;;;19.16;100.00
76358;BME280;65185;21.060;105.826;2024-02-23T09:25:45;101517.41;;;19.12;100.00
76358;BME280;65185;21.060;105.826;2024-02-23T09:28:11;101521.84;;;19.10;100.00
76358;BME280;65185;21.060;105.826;2024-02-23T09:30:38;101522.72;;;19.10;100.00
76358;BME280;65185;21.060;105.826;2024-02-23T09:33:05;101523.69;;;19.08;100.00
76358;BME280;65185;21.060;105.826;2024-02-23T09:35:31;101533.38;;;19.04;100.00
76358;BME280;65185;21.060;105.826;2024-02-23T09:37:57;101535.22;;;19.01;100.00
76358;BME280;65185;21.060;105.826;2024-02-23T09:40:24;101546.50;;;19.04;100.00
76358;BME280;65185;21.060;105.826;2024-02-23T09:42:55;101542.19;;;19.03;100.00
76358;BME280;65185;21.060;105.826;2024-02-23T09:45:24;101539.53;;;19.03;100.00
76358;BME280;65185;21.060;105.826;2024-02-23T09:47:53;101545.69;;;19.04;100.00
76358;BME280;65185;21.060;105.826;2024-02-23T09:50:22;101560.50;;;19.05;100.00
76358;BME280;65185;21.060;105.826;2024-02-23T09:52:49;101549.28;;;19.00;100.00
76358;BME280;65185;21.060;105.826;2024-02-23T09:55:17;101544.91;;;19.00;100.00
76358;BME280;65185;21.060;105.826;2024-02-23T09:57:45;101551.06;;;18.98;100.00
76358;BME280;65185;21.060;105.826;2024-02-23T10:00:15;101569.50;;;18.96;100.00
76358;BME280;65185;21.060;105.826;2024-02-23T10:02:43;101557.31;;;18.93;100.00
76358;BME280;65185;21.060;105.826;2024-02-23T10:05:14;101562.59;;;18.92;100.00
76358;BME280;65185;21.060;105.826;2024-02-23T10:07:43;101569.75;;;18.87;100.00
76358;BME280;65185;21.060;105.826;2024-02-23T10:10:10;101572.41;;;18.85;100.00
76358;BME280;65185;21.060;105.826;2024-02-23T10:12:39;101572.38;;;18.87;100.00
76358;BME280;65185;21.060;105.826;2024-02-23T10:15:06;101572.38;;;18.87;100.00
76358;BME280;65185;21.060;105.826;2024-02-23T10:17:33;101577.75;;;18.81;100.00
76358;BME280;65185;21.060;105.826;2024-02-23T10:19:59;101589.19;;;18.78;100.00
76358;BME280;65185;21.060;105.826;2024-02-23T10:22:31;101585.66;;;18.81;100.00
76358;BME280;65185;21.060;105.826;2024-02-23T10:24:57;101586.56;;;18.78;100.00
76358;BME280;65185;21.060;105.826;2024-02-23T10:27:24;101588.34;;;18.78;100.00
76358;BME280;65185;21.060;105.826;2024-02-23T10:29:50;101596.22;;;18.78;100.00
76358;BME280;65185;21.060;105.826;2024-02-23T10:32:18;101592.69;;;18.79;100.00
76358;BME280;65185;21.060;105.826;2024-02-23T10:34:48;101598.91;;;18.75;100.00
76358;BME280;65185;21.060;105.826;2024-02-23T10:37:17;101605.06;;;18.74;100.00
76358;BME280;65185;21.060;105.826;2024-02-23T10:39:45;101605.91;;;18.76;100.00
76358;BME280;65185;21.060;105.826;2024-02-23T10:42:12;101616.28;;;18.80;100.00
76358;BME280;65185;21.060;105.826;2024-02-23T10:44:40;101620.75;;;18.77;100.00
76358;BME280;65185;21.060;105.826;2024-02-23T10:47:07;101619.97;;;18.73;100.00
76358;BME280;65185;21.060;105.826;2024-02-23T10:49:34;101612.16;;;18.70;100.00
76358;BME280;65185;21.060;105.826;2024-02-23T10:52:03;101616.59;;;18.68;100.00
76358;BME280;65185;21.060;105.826;2024-02-23T10:54:31;101624.41;;;18.70;100.00
76358;BME280;65185;21.060;105.826;2024-02-23T10:56:57;101620.09;;;18.67;100.00
76358;BME280;65185;21.060;105.826;2024-02-23T10:59:24;101619.31;;;18.64;100.00
76358;BME280;65185;21.060;105.826;2024-02-23T11:01:54;101619.31;;;18.64;100.00
76358;BME280;65185;21.060;105.826;2024-02-23T11:04:26;101625.50;;;18.61;100.00
76358;BME280;65185;21.060;105.826;2024-02-23T11:06:56;101632.41;;;18.65;100.00
76358;BME280;65185;21.060;105.826;2024-02-23T11:09:32;101630.81;;;18.60;100.00
76358;BME280;65185;21.060;105.826;2024-02-23T11:11:58;101639.50;;;18.60;100.00
76358;BME280;65185;21.060;105.826;2024-02-23T11:14:32;101640.53;;;18.55;100.00
76358;BME280;65185;21.060;105.826;2024-02-23T11:17:01;101645.72;;;18.56;100.00
76358;BME280;65185;21.060;105.826;2024-02-23T11:19:38;101645.72;;;18.56;100.00
76358;BME280;65185;21.060;105.826;2024-02-23T11:22:10;101653.66;;;18.55;100.00
76358;BME280;65185;21.060;105.826;2024-02-23T11:24:42;101653.75;;;18.50;100.00
76358;BME280;65185;21.060;105.826;2024-02-23T11:27:14;101660.50;;;18.60;100.00
76358;BME280;65185;21.060;105.826;2024-02-23T11:29:42;101658.88;;;18.55;100.00
76358;BME280;65185;21.060;105.826;2024-02-23T11:32:16;101656.44;;;18.47;100.00
76358;BME280;65185;21.060;105.826;2024-02-23T11:34:54;101667.91;;;18.43;100.00
76358;BME280;65185;21.060;105.826;2024-02-23T11:37:23;101670.53;;;18.43;100.00
76358;BME280;65185;21.060;105.826;2024-02-23T11:39:50;101662.69;;;18.43;100.00
76358;BME280;65185;21.060;105.826;2024-02-23T11:42:18;101684.50;;;18.44;100.00
76358;BME280;65185;21.060;105.826;2024-02-23T11:44:44;101678.41;;;18.43;100.00
76358;BME280;65185;21.060;105.826;2024-02-23T11:47:10;101685.44;;;18.40;100.00
76358;BME280;65185;21.060;105.826;2024-02-23T11:49:37;101695.13;;;18.38;100.00
76358;BME280;65185;21.060;105.826;2024-02-23T11:52:03;101691.66;;;18.36;100.00
76358;BME280;65185;21.060;105.826;2024-02-23T11:54:30;101691.66;;;18.36;100.00
76358;BME280;65185;21.060;105.826;2024-02-23T11:56:57;101695.13;;;18.36;100.00
76358;BME280;65185;21.060;105.826;2024-02-23T11:59:23;101699.53;;;18.34;100.00
76358;BME280;65185;21.060;105.826;2024-02-23T12:01:51;101703.03;;;18.35;100.00
76358;BME280;65185;21.060;105.826;2024-02-23T12:04:17;101705.69;;;18.33;100.00
76358;BME280;65185;21.060;105.826;2024-02-23T12:06:43;101715.38;;;18.31;100.00
76358;BME280;65185;21.060;105.826;2024-02-23T12:09:12;101723.22;;;18.31;100.00
76358;BME280;65185;21.060;105.826;2024-02-23T12:11:39;101724.09;;;18.32;100.00
76358;BME280;65185;21.060;105.826;2024-02-23T12:14:06;101735.47;;;18.31;100.00
76358;BME280;65185;21.060;105.826;2024-02-23T12:16:35;101738.13;;;18.29;100.00
76358;BME280;65185;21.060;105.826;2024-02-23T12:19:02;101739.94;;;18.27;100.00
76358;BME280;65185;21.060;105.826;2024-02-23T12:21:34;101739.16;;;18.22;100.00
76358;BME280;65185;21.060;105.826;2024-02-23T12:24:07;101747.94;;;18.20;100.00